aviador You're here:

CYLW Decoded Metar

KELOWNA in BC, CANADA
Report Time2018-07-21 08:00:00
UTC Time2018-07-21 08:12:40
Flight Rules vfr VFR
WindVRB at 02 kt
Visibility9999 m
Phenomena:N/A
Clouds:N/A
Expected CloudBase > 2,000 ft AGL from Temp-Dew spread
CeilingNone
Temp10°C (ISA -2)
Dew Point05°C (71% RH)
AAT8.2°C
QNH1019 hPa
Density Alt1,070 ft
Elevation1,411 ft
Report Wrong Elevation
Raw Report
CYLW 210800Z AUTO VRB02KT 9SM CLR 10/05 A3009 RMK SLP191=

Extra information for CYLW:More info

Metar Taf Metar & Taf Last 4 Metars F.Rules Stats Wind Profile Meteogram Temp Stats Airport Information Weather charts Add Link Nearby VenuesMetar ALERT Operation Metar Decoded Social comments